sensor_id;sensor_type;location;lat;lon;timestamp;P1;durP1;ratioP1;P2;durP2;ratioP2
67571;SDS011;54397;47.506;19.158;2023-03-14T00:00:11;7.57;;;5.38;;
67571;SDS011;54397;47.506;19.158;2023-03-14T00:03:37;11.27;;;6.43;;
67571;SDS011;54397;47.506;19.158;2023-03-14T00:06:59;9.88;;;6.05;;
67571;SDS011;54397;47.506;19.158;2023-03-14T00:10:20;10.75;;;5.22;;
67571;SDS011;54397;47.506;19.158;2023-03-14T00:13:42;9.45;;;5.80;;
67571;SDS011;54397;47.506;19.158;2023-03-14T00:17:04;10.07;;;5.18;;
67571;SDS011;54397;47.506;19.158;2023-03-14T00:20:26;8.65;;;5.55;;
67571;SDS011;54397;47.506;19.158;2023-03-14T00:23:50;9.02;;;5.78;;
67571;SDS011;54397;47.506;19.158;2023-03-14T00:27:12;8.02;;;5.50;;
67571;SDS011;54397;47.506;19.158;2023-03-14T00:30:37;8.75;;;6.40;;
67571;SDS011;54397;47.506;19.158;2023-03-14T00:34:01;11.07;;;5.85;;
67571;SDS011;54397;47.506;19.158;2023-03-14T00:37:26;12.50;;;5.82;;
67571;SDS011;54397;47.506;19.158;2023-03-14T00:40:48;7.82;;;5.65;;
67571;SDS011;54397;47.506;19.158;2023-03-14T00:44:10;10.07;;;6.13;;
67571;SDS011;54397;47.506;19.158;2023-03-14T00:47:34;9.27;;;5.60;;
67571;SDS011;54397;47.506;19.158;2023-03-14T00:50:55;8.38;;;5.15;;
67571;SDS011;54397;47.506;19.158;2023-03-14T00:54:19;9.43;;;5.78;;
67571;SDS011;54397;47.506;19.158;2023-03-14T00:57:42;7.90;;;5.50;;
67571;SDS011;54397;47.506;19.158;2023-03-14T01:01:15;11.05;;;6.13;;
67571;SDS011;54397;47.506;19.158;2023-03-14T01:04:39;13.38;;;5.95;;
67571;SDS011;54397;47.506;19.158;2023-03-14T01:08:01;8.93;;;6.05;;
67571;SDS011;54397;47.506;19.158;2023-03-14T01:11:30;10.43;;;6.20;;
67571;SDS011;54397;47.506;19.158;2023-03-14T01:14:53;9.57;;;6.15;;
67571;SDS011;54397;47.506;19.158;2023-03-14T01:18:15;9.60;;;6.05;;
67571;SDS011;54397;47.506;19.158;2023-03-14T01:21:39;10.93;;;5.82;;
67571;SDS011;54397;47.506;19.158;2023-03-14T01:25:06;9.27;;;6.07;;
67571;SDS011;54397;47.506;19.158;2023-03-14T01:28:31;11.32;;;6.03;;
67571;SDS011;54397;47.506;19.158;2023-03-14T01:31:55;9.68;;;5.80;;
67571;SDS011;54397;47.506;19.158;2023-03-14T01:35:17;12.00;;;5.88;;
67571;SDS011;54397;47.506;19.158;2023-03-14T01:38:41;9.63;;;6.13;;
67571;SDS011;54397;47.506;19.158;2023-03-14T01:42:02;9.63;;;6.22;;
67571;SDS011;54397;47.506;19.158;2023-03-14T01:49:28;11.55;;;5.60;;
67571;SDS011;54397;47.506;19.158;2023-03-14T01:52:55;13.02;;;6.80;;
67571;SDS011;54397;47.506;19.158;2023-03-14T01:56:19;9.73;;;6.35;;
67571;SDS011;54397;47.506;19.158;2023-03-14T01:59:46;11.88;;;6.63;;
67571;SDS011;54397;47.506;19.158;2023-03-14T02:03:14;10.30;;;6.35;;
67571;SDS011;54397;47.506;19.158;2023-03-14T02:06:53;9.50;;;5.80;;
67571;SDS011;54397;47.506;19.158;2023-03-14T02:10:21;9.50;;;6.18;;
67571;SDS011;54397;47.506;19.158;2023-03-14T02:13:50;12.18;;;7.18;;
67571;SDS011;54397;47.506;19.158;2023-03-14T02:17:18;11.18;;;7.05;;
67571;SDS011;54397;47.506;19.158;2023-03-14T02:24:27;10.27;;;6.50;;
67571;SDS011;54397;47.506;19.158;2023-03-14T02:27:56;8.88;;;6.40;;
67571;SDS011;54397;47.506;19.158;2023-03-14T02:31:18;11.13;;;6.53;;
67571;SDS011;54397;47.506;19.158;2023-03-14T02:34:42;10.77;;;6.95;;
67571;SDS011;54397;47.506;19.158;2023-03-14T02:41:45;11.50;;;7.22;;
67571;SDS011;54397;47.506;19.158;2023-03-14T02:48:35;8.27;;;5.88;;
67571;SDS011;54397;47.506;19.158;2023-03-14T02:52:19;11.52;;;6.97;;
67571;SDS011;54397;47.506;19.158;2023-03-14T02:55:43;13.13;;;6.93;;
67571;SDS011;54397;47.506;19.158;2023-03-14T02:59:06;9.38;;;6.35;;
67571;SDS011;54397;47.506;19.158;2023-03-14T03:02:30;9.35;;;5.50;;
67571;SDS011;54397;47.506;19.158;2023-03-14T03:05:53;9.75;;;6.18;;
67571;SDS011;54397;47.506;19.158;2023-03-14T03:09:18;11.38;;;6.20;;
67571;SDS011;54397;47.506;19.158;2023-03-14T03:12:43;10.07;;;6.07;;
67571;SDS011;54397;47.506;19.158;2023-03-14T03:16:09;10.20;;;6.43;;
67571;SDS011;54397;47.506;19.158;2023-03-14T03:19:34;9.52;;;5.60;;
67571;SDS011;54397;47.506;19.158;2023-03-14T03:22:57;8.55;;;5.88;;
67571;SDS011;54397;47.506;19.158;2023-03-14T03:26:24;12.45;;;9.02;;
67571;SDS011;54397;47.506;19.158;2023-03-14T03:29:46;12.60;;;7.07;;
67571;SDS011;54397;47.506;19.158;2023-03-14T03:33:08;8.27;;;6.13;;
67571;SDS011;54397;47.506;19.158;2023-03-14T03:36:33;8.90;;;5.90;;
67571;SDS011;54397;47.506;19.158;2023-03-14T03:39:55;9.70;;;5.93;;
67571;SDS011;54397;47.506;19.158;2023-03-14T03:43:17;12.68;;;5.88;;
67571;SDS011;54397;47.506;19.158;2023-03-14T03:46:39;8.52;;;5.43;;
67571;SDS011;54397;47.506;19.158;2023-03-14T03:50:03;9.48;;;6.32;;
67571;SDS011;54397;47.506;19.158;2023-03-14T03:53:28;10.93;;;5.85;;
67571;SDS011;54397;47.506;19.158;2023-03-14T04:00:18;9.82;;;5.95;;
67571;SDS011;54397;47.506;19.158;2023-03-14T04:03:46;6.35;;;5.25;;
67571;SDS011;54397;47.506;19.158;2023-03-14T04:07:10;7.65;;;5.25;;
67571;SDS011;54397;47.506;19.158;2023-03-14T04:10:35;8.52;;;5.50;;
67571;SDS011;54397;47.506;19.158;2023-03-14T04:13:57;9.77;;;5.93;;
67571;SDS011;54397;47.506;19.158;2023-03-14T04:17:24;8.98;;;5.30;;
67571;SDS011;54397;47.506;19.158;2023-03-14T04:20:50;9.35;;;5.70;;
67571;SDS011;54397;47.506;19.158;2023-03-14T04:24:15;7.18;;;5.18;;
67571;SDS011;54397;47.506;19.158;2023-03-14T04:27:39;11.82;;;5.10;;
67571;SDS011;54397;47.506;19.158;2023-03-14T04:31:10;7.90;;;5.40;;
67571;SDS011;54397;47.506;19.158;2023-03-14T04:34:33;10.07;;;6.03;;
67571;SDS011;54397;47.506;19.158;2023-03-14T04:37:57;9.07;;;5.53;;
67571;SDS011;54397;47.506;19.158;2023-03-14T04:41:19;8.20;;;4.55;;
67571;SDS011;54397;47.506;19.158;2023-03-14T04:44:40;8.60;;;5.30;;
67571;SDS011;54397;47.506;19.158;2023-03-14T04:48:04;8.88;;;4.80;;
67571;SDS011;54397;47.506;19.158;2023-03-14T04:51:26;7.20;;;4.93;;
67571;SDS011;54397;47.506;19.158;2023-03-14T04:54:48;7.25;;;4.95;;
67571;SDS011;54397;47.506;19.158;2023-03-14T04:58:12;8.80;;;4.95;;
67571;SDS011;54397;47.506;19.158;2023-03-14T05:01:35;7.38;;;4.60;;
67571;SDS011;54397;47.506;19.158;2023-03-14T05:05:00;7.32;;;4.93;;
67571;SDS011;54397;47.506;19.158;2023-03-14T05:08:21;11.50;;;5.10;;
67571;SDS011;54397;47.506;19.158;2023-03-14T05:11:43;8.07;;;4.65;;
67571;SDS011;54397;47.506;19.158;2023-03-14T05:15:05;7.18;;;4.95;;
67571;SDS011;54397;47.506;19.158;2023-03-14T05:18:27;8.40;;;4.90;;
67571;SDS011;54397;47.506;19.158;2023-03-14T05:21:48;9.15;;;5.32;;
67571;SDS011;54397;47.506;19.158;2023-03-14T05:25:10;12.90;;;5.32;;
67571;SDS011;54397;47.506;19.158;2023-03-14T05:28:32;6.80;;;4.45;;
67571;SDS011;54397;47.506;19.158;2023-03-14T05:31:56;7.38;;;4.60;;
67571;SDS011;54397;47.506;19.158;2023-03-14T05:35:17;8.75;;;5.38;;
67571;SDS011;54397;47.506;19.158;2023-03-14T05:38:41;10.25;;;5.80;;
67571;SDS011;54397;47.506;19.158;2023-03-14T05:42:05;8.98;;;4.60;;
67571;SDS011;54397;47.506;19.158;2023-03-14T05:45:27;10.75;;;5.35;;
67571;SDS011;54397;47.506;19.158;2023-03-14T05:48:49;11.10;;;5.80;;
67571;SDS011;54397;47.506;19.158;2023-03-14T05:52:11;10.93;;;4.70;;
67571;SDS011;54397;47.506;19.158;2023-03-14T05:55:33;7.32;;;4.95;;
67571;SDS011;54397;47.506;19.158;2023-03-14T05:58:59;7.55;;;4.68;;
67571;SDS011;54397;47.506;19.158;2023-03-14T06:02:24;11.13;;;5.70;;
67571;SDS011;54397;47.506;19.158;2023-03-14T06:05:46;8.68;;;5.22;;
67571;SDS011;54397;47.506;19.158;2023-03-14T06:09:07;8.65;;;4.90;;
67571;SDS011;54397;47.506;19.158;2023-03-14T06:12:29;11.32;;;6.40;;
67571;SDS011;54397;47.506;19.158;2023-03-14T06:15:53;9.50;;;5.43;;
67571;SDS011;54397;47.506;19.158;2023-03-14T06:19:14;8.70;;;4.78;;
67571;SDS011;54397;47.506;19.158;2023-03-14T06:22:36;9.48;;;4.57;;
67571;SDS011;54397;47.506;19.158;2023-03-14T06:25:58;11.63;;;4.75;;
67571;SDS011;54397;47.506;19.158;2023-03-14T06:29:22;12.18;;;4.50;;
67571;SDS011;54397;47.506;19.158;2023-03-14T06:32:44;5.75;;;4.50;;
67571;SDS011;54397;47.506;19.158;2023-03-14T06:36:06;11.65;;;4.97;;
67571;SDS011;54397;47.506;19.158;2023-03-14T06:39:28;9.60;;;5.05;;
67571;SDS011;54397;47.506;19.158;2023-03-14T06:42:53;7.78;;;4.78;;
67571;SDS011;54397;47.506;19.158;2023-03-14T06:46:14;9.65;;;4.78;;
67571;SDS011;54397;47.506;19.158;2023-03-14T06:49:36;14.25;;;5.32;;
67571;SDS011;54397;47.506;19.158;2023-03-14T06:53:00;6.65;;;4.35;;
67571;SDS011;54397;47.506;19.158;2023-03-14T06:56:24;9.52;;;4.85;;
67571;SDS011;54397;47.506;19.158;2023-03-14T06:59:46;9.65;;;5.00;;
67571;SDS011;54397;47.506;19.158;2023-03-14T07:03:08;8.80;;;4.85;;
67571;SDS011;54397;47.506;19.158;2023-03-14T07:06:34;9.60;;;5.10;;
67571;SDS011;54397;47.506;19.158;2023-03-14T07:09:55;10.02;;;5.07;;
67571;SDS011;54397;47.506;19.158;2023-03-14T07:13:17;7.57;;;4.50;;
67571;SDS011;54397;47.506;19.158;2023-03-14T07:16:43;10.80;;;4.65;;
67571;SDS011;54397;47.506;19.158;2023-03-14T07:20:06;11.65;;;4.65;;
67571;SDS011;54397;47.506;19.158;2023-03-14T07:23:29;8.00;;;4.57;;
67571;SDS011;54397;47.506;19.158;2023-03-14T07:26:52;7.70;;;4.60;;
67571;SDS011;54397;47.506;19.158;2023-03-14T07:30:14;7.03;;;4.60;;
67571;SDS011;54397;47.506;19.158;2023-03-14T07:33:36;12.25;;;4.70;;
67571;SDS011;54397;47.506;19.158;2023-03-14T07:36:58;7.50;;;4.57;;
67571;SDS011;54397;47.506;19.158;2023-03-14T07:40:20;8.38;;;4.15;;
67571;SDS011;54397;47.506;19.158;2023-03-14T07:43:44;10.70;;;4.90;;
67571;SDS011;54397;47.506;19.158;2023-03-14T07:47:10;10.85;;;5.25;;
67571;SDS011;54397;47.506;19.158;2023-03-14T07:50:34;6.43;;;4.50;;
67571;SDS011;54397;47.506;19.158;2023-03-14T07:53:55;10.40;;;4.43;;
67571;SDS011;54397;47.506;19.158;2023-03-14T07:57:17;10.52;;;4.35;;
67571;SDS011;54397;47.506;19.158;2023-03-14T08:00:39;7.80;;;4.80;;
67571;SDS011;54397;47.506;19.158;2023-03-14T08:04:01;9.63;;;4.40;;
67571;SDS011;54397;47.506;19.158;2023-03-14T08:07:22;9.30;;;5.78;;
67571;SDS011;54397;47.506;19.158;2023-03-14T08:10:47;10.48;;;4.63;;
67571;SDS011;54397;47.506;19.158;2023-03-14T08:14:11;8.25;;;4.30;;
67571;SDS011;54397;47.506;19.158;2023-03-14T08:17:32;10.90;;;4.70;;
67571;SDS011;54397;47.506;19.158;2023-03-14T08:20:54;8.02;;;3.92;;
67571;SDS011;54397;47.506;19.158;2023-03-14T08:24:23;7.18;;;3.85;;
67571;SDS011;54397;47.506;19.158;2023-03-14T08:27:46;10.95;;;4.65;;
67571;SDS011;54397;47.506;19.158;2023-03-14T08:31:10;9.23;;;4.38;;
67571;SDS011;54397;47.506;19.158;2023-03-14T08:34:33;18.83;;;7.88;;
67571;SDS011;54397;47.506;19.158;2023-03-14T08:37:55;8.52;;;4.15;;
67571;SDS011;54397;47.506;19.158;2023-03-14T08:41:17;12.50;;;4.35;;
67571;SDS011;54397;47.506;19.158;2023-03-14T08:44:41;6.63;;;3.17;;
67571;SDS011;54397;47.506;19.158;2023-03-14T08:48:03;6.22;;;4.03;;
67571;SDS011;54397;47.506;19.158;2023-03-14T08:51:25;8.93;;;4.22;;
67571;SDS011;54397;47.506;19.158;2023-03-14T08:54:47;7.03;;;2.83;;
67571;SDS011;54397;47.506;19.158;2023-03-14T08:58:11;5.72;;;3.40;;
67571;SDS011;54397;47.506;19.158;2023-03-14T09:01:32;38.63;;;15.70;;
67571;SDS011;54397;47.506;19.158;2023-03-14T09:04:58;7.25;;;4.20;;
67571;SDS011;54397;47.506;19.158;2023-03-14T09:08:20;9.23;;;4.00;;
67571;SDS011;54397;47.506;19.158;2023-03-14T09:11:42;4.90;;;3.25;;
67571;SDS011;54397;47.506;19.158;2023-03-14T09:15:06;12.70;;;6.45;;
67571;SDS011;54397;47.506;19.158;2023-03-14T09:18:28;8.00;;;3.67;;
67571;SDS011;54397;47.506;19.158;2023-03-14T09:21:50;17.25;;;7.85;;
67571;SDS011;54397;47.506;19.158;2023-03-14T09:25:14;11.73;;;5.72;;
67571;SDS011;54397;47.506;19.158;2023-03-14T09:28:38;9.52;;;5.40;;
67571;SDS011;54397;47.506;19.158;2023-03-14T09:32:00;8.55;;;5.05;;
67571;SDS011;54397;47.506;19.158;2023-03-14T09:35:24;9.57;;;5.72;;
67571;SDS011;54397;47.506;19.158;2023-03-14T09:38:49;14.32;;;7.18;;
67571;SDS011;54397;47.506;19.158;2023-03-14T09:42:13;17.77;;;7.72;;
67571;SDS011;54397;47.506;19.158;2023-03-14T09:45:39;33.17;;;11.40;;
67571;SDS011;54397;47.506;19.158;2023-03-14T09:49:08;18.05;;;6.95;;
67571;SDS011;54397;47.506;19.158;2023-03-14T09:52:35;11.55;;;4.07;;
67571;SDS011;54397;47.506;19.158;2023-03-14T09:59:25;13.30;;;3.95;;
67571;SDS011;54397;47.506;19.158;2023-03-14T10:02:53;14.90;;;8.40;;
67571;SDS011;54397;47.506;19.158;2023-03-14T10:06:32;28.48;;;10.07;;
67571;SDS011;54397;47.506;19.158;2023-03-14T10:09:55;15.05;;;4.60;;
67571;SDS011;54397;47.506;19.158;2023-03-14T10:13:19;13.15;;;4.72;;
67571;SDS011;54397;47.506;19.158;2023-03-14T10:16:47;16.45;;;4.88;;
67571;SDS011;54397;47.506;19.158;2023-03-14T10:20:44;16.95;;;5.43;;
67571;SDS011;54397;47.506;19.158;2023-03-14T10:27:44;23.38;;;7.53;;
67571;SDS011;54397;47.506;19.158;2023-03-14T10:31:05;20.10;;;7.78;;
67571;SDS011;54397;47.506;19.158;2023-03-14T10:34:32;23.45;;;8.65;;
67571;SDS011;54397;47.506;19.158;2023-03-14T10:37:57;21.40;;;5.90;;
67571;SDS011;54397;47.506;19.158;2023-03-14T10:41:25;34.47;;;13.95;;
67571;SDS011;54397;47.506;19.158;2023-03-14T10:44:49;20.60;;;4.68;;
67571;SDS011;54397;47.506;19.158;2023-03-14T10:51:45;11.10;;;3.20;;
67571;SDS011;54397;47.506;19.158;2023-03-14T10:55:11;11.20;;;3.65;;
67571;SDS011;54397;47.506;19.158;2023-03-14T10:58:36;9.05;;;3.03;;
67571;SDS011;54397;47.506;19.158;2023-03-14T11:16:30;8.13;;;3.78;;
67571;SDS011;54397;47.506;19.158;2023-03-14T11:24:49;12.85;;;2.60;;
67571;SDS011;54397;47.506;19.158;2023-03-14T11:28:00;3.15;;;1.55;;
67571;SDS011;54397;47.506;19.158;2023-03-14T11:31:38;2.63;;;1.35;;
67571;SDS011;54397;47.506;19.158;2023-03-14T11:35:03;2.25;;;1.42;;
67571;SDS011;54397;47.506;19.158;2023-03-14T11:38:52;4.97;;;1.52;;
67571;SDS011;54397;47.506;19.158;2023-03-14T11:42:16;3.88;;;2.08;;
67571;SDS011;54397;47.506;19.158;2023-03-14T11:45:40;4.75;;;1.92;;
67571;SDS011;54397;47.506;19.158;2023-03-14T11:49:14;8.90;;;1.90;;
67571;SDS011;54397;47.506;19.158;2023-03-14T11:53:05;10.48;;;1.55;;
67571;SDS011;54397;47.506;19.158;2023-03-14T11:56:37;7.47;;;1.98;;
67571;SDS011;54397;47.506;19.158;2023-03-14T12:03:46;3.97;;;1.65;;
67571;SDS011;54397;47.506;19.158;2023-03-14T12:07:20;6.82;;;2.10;;
67571;SDS011;54397;47.506;19.158;2023-03-14T12:10:46;3.42;;;1.52;;
67571;SDS011;54397;47.506;19.158;2023-03-14T12:17:54;4.00;;;1.65;;
67571;SDS011;54397;47.506;19.158;2023-03-14T12:21:16;4.80;;;1.87;;
67571;SDS011;54397;47.506;19.158;2023-03-14T12:24:39;3.72;;;1.25;;
67571;SDS011;54397;47.506;19.158;2023-03-14T12:31:45;4.88;;;2.15;;
67571;SDS011;54397;47.506;19.158;2023-03-14T12:35:34;4.13;;;1.35;;
67571;SDS011;54397;47.506;19.158;2023-03-14T12:39:04;3.60;;;1.25;;
67571;SDS011;54397;47.506;19.158;2023-03-14T12:42:38;3.97;;;1.35;;
67571;SDS011;54397;47.506;19.158;2023-03-14T12:46:19;4.00;;;1.48;;
67571;SDS011;54397;47.506;19.158;2023-03-14T12:49:49;6.10;;;1.45;;
67571;SDS011;54397;47.506;19.158;2023-03-14T12:53:18;4.32;;;1.50;;
67571;SDS011;54397;47.506;19.158;2023-03-14T13:00:38;2.22;;;1.50;;
67571;SDS011;54397;47.506;19.158;2023-03-14T13:04:07;3.28;;;1.40;;
67571;SDS011;54397;47.506;19.158;2023-03-14T13:10:57;4.13;;;1.52;;
67571;SDS011;54397;47.506;19.158;2023-03-14T13:14:18;5.18;;;1.70;;
67571;SDS011;54397;47.506;19.158;2023-03-14T13:17:40;3.47;;;1.60;;
67571;SDS011;54397;47.506;19.158;2023-03-14T13:24:33;2.72;;;1.50;;
67571;SDS011;54397;47.506;19.158;2023-03-14T13:27:55;2.67;;;1.40;;
67571;SDS011;54397;47.506;19.158;2023-03-14T13:31:22;7.35;;;1.58;;
67571;SDS011;54397;47.506;19.158;2023-03-14T13:34:46;2.75;;;1.50;;
67571;SDS011;54397;47.506;19.158;2023-03-14T13:38:15;5.00;;;2.42;;
67571;SDS011;54397;47.506;19.158;2023-03-14T13:41:39;4.28;;;1.75;;
67571;SDS011;54397;47.506;19.158;2023-03-14T13:45:02;4.22;;;1.95;;
67571;SDS011;54397;47.506;19.158;2023-03-14T13:48:27;4.50;;;2.88;;
67571;SDS011;54397;47.506;19.158;2023-03-14T13:51:51;3.95;;;3.03;;
67571;SDS011;54397;47.506;19.158;2023-03-14T13:55:16;6.13;;;1.90;;
67571;SDS011;54397;47.506;19.158;2023-03-14T13:58:42;4.43;;;2.67;;
67571;SDS011;54397;47.506;19.158;2023-03-14T14:02:04;5.20;;;1.85;;
67571;SDS011;54397;47.506;19.158;2023-03-14T14:05:38;4.13;;;1.60;;
67571;SDS011;54397;47.506;19.158;2023-03-14T14:09:04;2.47;;;1.52;;
67571;SDS011;54397;47.506;19.158;2023-03-14T14:16:32;5.80;;;1.73;;
67571;SDS011;54397;47.506;19.158;2023-03-14T14:19:56;5.30;;;2.00;;
67571;SDS011;54397;47.506;19.158;2023-03-14T14:23:21;5.53;;;2.15;;
67571;SDS011;54397;47.506;19.158;2023-03-14T14:27:11;6.63;;;1.80;;
67571;SDS011;54397;47.506;19.158;2023-03-14T14:30:30;4.18;;;1.65;;
67571;SDS011;54397;47.506;19.158;2023-03-14T14:33:55;5.45;;;2.13;;
67571;SDS011;54397;47.506;19.158;2023-03-14T14:37:20;6.78;;;1.98;;
67571;SDS011;54397;47.506;19.158;2023-03-14T14:44:11;6.03;;;2.20;;
67571;SDS011;54397;47.506;19.158;2023-03-14T14:47:33;4.18;;;2.28;;
67571;SDS011;54397;47.506;19.158;2023-03-14T14:50:57;2.97;;;1.88;;
67571;SDS011;54397;47.506;19.158;2023-03-14T14:54:32;6.50;;;2.20;;
67571;SDS011;54397;47.506;19.158;2023-03-14T14:57:55;5.65;;;2.50;;
67571;SDS011;54397;47.506;19.158;2023-03-14T15:01:21;7.60;;;2.30;;
67571;SDS011;54397;47.506;19.158;2023-03-14T15:04:45;4.38;;;2.60;;
67571;SDS011;54397;47.506;19.158;2023-03-14T15:08:09;4.35;;;2.63;;
67571;SDS011;54397;47.506;19.158;2023-03-14T15:11:31;4.25;;;2.53;;
67571;SDS011;54397;47.506;19.158;2023-03-14T15:14:52;3.38;;;2.40;;
67571;SDS011;54397;47.506;19.158;2023-03-14T15:18:17;5.25;;;2.53;;
67571;SDS011;54397;47.506;19.158;2023-03-14T15:21:40;6.07;;;2.95;;
67571;SDS011;54397;47.506;19.158;2023-03-14T15:25:04;7.95;;;2.70;;
67571;SDS011;54397;47.506;19.158;2023-03-14T15:28:26;9.45;;;2.75;;
67571;SDS011;54397;47.506;19.158;2023-03-14T15:31:53;5.15;;;2.63;;
67571;SDS011;54397;47.506;19.158;2023-03-14T15:35:17;6.65;;;2.80;;
67571;SDS011;54397;47.506;19.158;2023-03-14T15:38:39;4.20;;;2.70;;
67571;SDS011;54397;47.506;19.158;2023-03-14T15:42:01;5.82;;;2.88;;
67571;SDS011;54397;47.506;19.158;2023-03-14T15:45:25;7.65;;;3.58;;
67571;SDS011;54397;47.506;19.158;2023-03-14T15:48:52;9.45;;;3.10;;
67571;SDS011;54397;47.506;19.158;2023-03-14T15:52:15;8.70;;;3.33;;
67571;SDS011;54397;47.506;19.158;2023-03-14T15:55:37;13.00;;;3.63;;
67571;SDS011;54397;47.506;19.158;2023-03-14T15:59:01;8.27;;;3.55;;
67571;SDS011;54397;47.506;19.158;2023-03-14T16:02:26;8.20;;;3.80;;
67571;SDS011;54397;47.506;19.158;2023-03-14T16:05:50;10.02;;;4.10;;
67571;SDS011;54397;47.506;19.158;2023-03-14T16:09:14;4.38;;;2.33;;
67571;SDS011;54397;47.506;19.158;2023-03-14T16:12:36;6.15;;;1.98;;
67571;SDS011;54397;47.506;19.158;2023-03-14T16:15:59;3.00;;;1.33;;
67571;SDS011;54397;47.506;19.158;2023-03-14T16:19:27;2.20;;;1.30;;
67571;SDS011;54397;47.506;19.158;2023-03-14T16:22:52;2.35;;;1.50;;
67571;SDS011;54397;47.506;19.158;2023-03-14T16:26:17;3.15;;;1.45;;
67571;SDS011;54397;47.506;19.158;2023-03-14T16:29:40;2.92;;;1.50;;
67571;SDS011;54397;47.506;19.158;2023-03-14T16:33:02;6.43;;;1.77;;
67571;SDS011;54397;47.506;19.158;2023-03-14T16:36:48;3.05;;;1.35;;
67571;SDS011;54397;47.506;19.158;2023-03-14T16:40:12;2.92;;;1.52;;
67571;SDS011;54397;47.506;19.158;2023-03-14T16:43:36;8.52;;;5.35;;
67571;SDS011;54397;47.506;19.158;2023-03-14T16:46:58;2.47;;;1.40;;
67571;SDS011;54397;47.506;19.158;2023-03-14T16:50:20;3.08;;;1.67;;
67571;SDS011;54397;47.506;19.158;2023-03-14T16:53:42;2.22;;;1.75;;
67571;SDS011;54397;47.506;19.158;2023-03-14T16:57:04;3.67;;;1.98;;
67571;SDS011;54397;47.506;19.158;2023-03-14T17:00:26;4.15;;;1.80;;
67571;SDS011;54397;47.506;19.158;2023-03-14T17:03:48;3.05;;;1.70;;
67571;SDS011;54397;47.506;19.158;2023-03-14T17:07:14;3.92;;;1.70;;
67571;SDS011;54397;47.506;19.158;2023-03-14T17:10:38;6.70;;;1.75;;
67571;SDS011;54397;47.506;19.158;2023-03-14T17:14:02;5.90;;;1.73;;
67571;SDS011;54397;47.506;19.158;2023-03-14T17:17:27;2.97;;;1.40;;
67571;SDS011;54397;47.506;19.158;2023-03-14T17:20:55;6.40;;;1.90;;
67571;SDS011;54397;47.506;19.158;2023-03-14T17:24:19;4.25;;;1.40;;
67571;SDS011;54397;47.506;19.158;2023-03-14T17:27:41;1.88;;;1.33;;
67571;SDS011;54397;47.506;19.158;2023-03-14T17:31:07;5.90;;;1.50;;
67571;SDS011;54397;47.506;19.158;2023-03-14T17:34:30;1.90;;;1.40;;
67571;SDS011;54397;47.506;19.158;2023-03-14T17:37:54;2.42;;;1.40;;
67571;SDS011;54397;47.506;19.158;2023-03-14T17:41:18;2.35;;;1.42;;
67571;SDS011;54397;47.506;19.158;2023-03-14T17:44:40;6.28;;;4.38;;
67571;SDS011;54397;47.506;19.158;2023-03-14T17:48:04;6.53;;;1.90;;
67571;SDS011;54397;47.506;19.158;2023-03-14T17:51:25;3.63;;;1.50;;
67571;SDS011;54397;47.506;19.158;2023-03-14T17:54:50;2.22;;;1.40;;
67571;SDS011;54397;47.506;19.158;2023-03-14T17:58:12;3.97;;;2.20;;
67571;SDS011;54397;47.506;19.158;2023-03-14T18:01:36;4.88;;;1.63;;
67571;SDS011;54397;47.506;19.158;2023-03-14T18:04:58;3.03;;;1.50;;
67571;SDS011;54397;47.506;19.158;2023-03-14T18:08:20;2.45;;;1.30;;
67571;SDS011;54397;47.506;19.158;2023-03-14T18:11:42;2.30;;;1.50;;
67571;SDS011;54397;47.506;19.158;2023-03-14T18:15:04;4.65;;;1.60;;
67571;SDS011;54397;47.506;19.158;2023-03-14T18:18:26;2.38;;;1.17;;
67571;SDS011;54397;47.506;19.158;2023-03-14T18:21:52;2.60;;;1.40;;
67571;SDS011;54397;47.506;19.158;2023-03-14T18:25:14;3.05;;;1.80;;
67571;SDS011;54397;47.506;19.158;2023-03-14T18:28:35;2.63;;;1.30;;
67571;SDS011;54397;47.506;19.158;2023-03-14T18:31:57;3.85;;;1.63;;
67571;SDS011;54397;47.506;19.158;2023-03-14T18:35:19;7.07;;;3.17;;
67571;SDS011;54397;47.506;19.158;2023-03-14T18:38:40;2.85;;;1.48;;
67571;SDS011;54397;47.506;19.158;2023-03-14T18:42:11;2.77;;;1.10;;
67571;SDS011;54397;47.506;19.158;2023-03-14T18:45:35;1.83;;;1.20;;
67571;SDS011;54397;47.506;19.158;2023-03-14T18:49:02;4.27;;;1.40;;
67571;SDS011;54397;47.506;19.158;2023-03-14T18:52:24;2.75;;;1.30;;
67571;SDS011;54397;47.506;19.158;2023-03-14T18:55:48;2.72;;;1.58;;
67571;SDS011;54397;47.506;19.158;2023-03-14T18:59:15;4.80;;;2.50;;
67571;SDS011;54397;47.506;19.158;2023-03-14T19:02:37;2.55;;;1.60;;
67571;SDS011;54397;47.506;19.158;2023-03-14T19:06:00;2.28;;;1.40;;
67571;SDS011;54397;47.506;19.158;2023-03-14T19:09:26;4.53;;;2.70;;
67571;SDS011;54397;47.506;19.158;2023-03-14T19:12:48;2.15;;;1.75;;
67571;SDS011;54397;47.506;19.158;2023-03-14T19:16:11;3.13;;;1.63;;
67571;SDS011;54397;47.506;19.158;2023-03-14T19:19:34;2.15;;;1.40;;
67571;SDS011;54397;47.506;19.158;2023-03-14T19:22:55;2.38;;;1.25;;
67571;SDS011;54397;47.506;19.158;2023-03-14T19:26:21;1.63;;;1.13;;
67571;SDS011;54397;47.506;19.158;2023-03-14T19:29:45;1.42;;;1.10;;
67571;SDS011;54397;47.506;19.158;2023-03-14T19:33:09;2.40;;;1.58;;
67571;SDS011;54397;47.506;19.158;2023-03-14T19:36:34;1.83;;;1.48;;
67571;SDS011;54397;47.506;19.158;2023-03-14T19:39:58;2.72;;;1.25;;
67571;SDS011;54397;47.506;19.158;2023-03-14T19:43:20;3.30;;;1.58;;
67571;SDS011;54397;47.506;19.158;2023-03-14T19:46:44;1.65;;;1.45;;
67571;SDS011;54397;47.506;19.158;2023-03-14T19:50:06;2.10;;;1.17;;
67571;SDS011;54397;47.506;19.158;2023-03-14T19:53:29;1.75;;;1.30;;
67571;SDS011;54397;47.506;19.158;2023-03-14T19:56:51;2.10;;;1.40;;
67571;SDS011;54397;47.506;19.158;2023-03-14T20:00:15;2.28;;;1.50;;
67571;SDS011;54397;47.506;19.158;2023-03-14T20:03:38;2.08;;;1.60;;
67571;SDS011;54397;47.506;19.158;2023-03-14T20:07:00;3.25;;;1.50;;
67571;SDS011;54397;47.506;19.158;2023-03-14T20:10:24;2.42;;;1.40;;
67571;SDS011;54397;47.506;19.158;2023-03-14T20:13:46;1.35;;;1.20;;
67571;SDS011;54397;47.506;19.158;2023-03-14T20:17:08;9.57;;;1.50;;
67571;SDS011;54397;47.506;19.158;2023-03-14T20:20:32;3.03;;;1.30;;
67571;SDS011;54397;47.506;19.158;2023-03-14T20:23:54;2.38;;;1.30;;
67571;SDS011;54397;47.506;19.158;2023-03-14T20:27:15;2.67;;;1.30;;
67571;SDS011;54397;47.506;19.158;2023-03-14T20:30:37;3.55;;;1.60;;
67571;SDS011;54397;47.506;19.158;2023-03-14T20:33:58;3.28;;;1.70;;
67571;SDS011;54397;47.506;19.158;2023-03-14T20:37:22;3.13;;;1.83;;
67571;SDS011;54397;47.506;19.158;2023-03-14T20:40:47;3.00;;;1.67;;
67571;SDS011;54397;47.506;19.158;2023-03-14T20:44:08;2.15;;;1.50;;
67571;SDS011;54397;47.506;19.158;2023-03-14T20:47:34;2.92;;;1.70;;
67571;SDS011;54397;47.506;19.158;2023-03-14T20:50:55;3.08;;;1.77;;
67571;SDS011;54397;47.506;19.158;2023-03-14T20:54:19;2.85;;;1.33;;
67571;SDS011;54397;47.506;19.158;2023-03-14T20:57:43;4.18;;;1.55;;
67571;SDS011;54397;47.506;19.158;2023-03-14T21:01:05;5.20;;;1.60;;
67571;SDS011;54397;47.506;19.158;2023-03-14T21:04:27;2.53;;;1.75;;
67571;SDS011;54397;47.506;19.158;2023-03-14T21:07:49;3.88;;;1.80;;
67571;SDS011;54397;47.506;19.158;2023-03-14T21:11:13;4.15;;;1.80;;
67571;SDS011;54397;47.506;19.158;2023-03-14T21:14:34;5.00;;;2.03;;
67571;SDS011;54397;47.506;19.158;2023-03-14T21:17:56;3.63;;;2.00;;
67571;SDS011;54397;47.506;19.158;2023-03-14T21:21:18;5.82;;;2.17;;
67571;SDS011;54397;47.506;19.158;2023-03-14T21:24:42;3.38;;;1.80;;